Time;durP1;ratioP1;P1;durP2;ratioP2;P2;SDS_P1;SDS_P2;PMS_P1;PMS_P2;Temp;Humidity;BMP_temperature;BMP_pressure;BME280_temperature;BME280_humidity;BME280_pressure;Samples;Min_cycle;Max_cycle;Signal;HPM_P1;HPM_P2
2022/07/04 00:00:49;;;;;;;7.43;4.07;;;22.80;40.80;;;;;;5050098;28;20187;-70
2022/07/04 00:03:15;;;;;;;4.63;3.80;;;23.40;38.80;;;;;;5049530;28;20290;-70
2022/07/04 00:05:40;;;;;;;10.87;4.20;;;24.10;37.10;;;;;;5050211;28;20194;-70
2022/07/04 00:08:06;;;;;;;7.07;4.37;;;24.20;36.70;;;;;;5050338;28;20277;-69
2022/07/04 00:10:32;;;;;;;5.77;4.23;;;24.50;37.40;;;;;;5049383;28;20191;-70
2022/07/04 00:12:57;;;;;;;7.53;4.50;;;24.90;34.80;;;;;;5047737;28;20222;-70
2022/07/04 00:15:23;;;;;;;6.47;4.90;;;25.00;35.00;;;;;;5049032;28;20460;-70
2022/07/04 00:17:50;;;;;;;10.27;4.50;;;25.00;34.50;;;;;;5050086;28;20186;-70
2022/07/04 00:20:16;;;;;;;10.80;4.33;;;24.80;35.70;;;;;;5050197;28;20179;-70
2022/07/04 00:22:42;;;;;;;6.40;4.37;;;24.80;35.00;;;;;;5050398;28;20453;-70
2022/07/04 00:25:07;;;;;;;8.47;4.30;;;24.70;35.80;;;;;;5049295;28;20186;-69
2022/07/04 00:27:33;;;;;;;8.03;4.00;;;24.70;35.80;;;;;;5032322;28;20172;-69
2022/07/04 00:29:59;;;;;;;4.87;3.87;;;24.80;35.00;;;;;;5047924;28;20179;-70
2022/07/04 00:32:25;;;;;;;6.13;4.27;;;24.90;34.80;;;;;;5048836;28;20224;-69
2022/07/04 00:34:50;;;;;;;6.33;4.20;;;24.70;34.90;;;;;;5049044;28;20262;-70
2022/07/04 00:37:16;;;;;;;4.97;4.20;;;24.70;35.40;;;;;;5049998;28;20192;-70
2022/07/04 00:39:42;;;;;;;7.67;4.13;;;24.60;36.90;;;;;;5031488;28;20330;-70
2022/07/04 00:42:08;;;;;;;7.07;4.03;;;24.50;37.40;;;;;;5049616;28;20262;-70
2022/07/04 00:44:37;;;;;;;5.13;4.00;;;24.60;36.50;;;;;;5048229;28;20273;-70
2022/07/04 00:47:04;;;;;;;8.77;4.40;;;24.40;36.10;;;;;;5049934;28;20797;-70
2022/07/04 00:49:30;;;;;;;9.40;4.20;;;24.30;37.60;;;;;;5050658;28;20410;-70
2022/07/04 00:51:56;;;;;;;8.53;4.10;;;24.60;36.40;;;;;;5049577;28;20548;-70
2022/07/04 00:54:26;;;;;;;9.27;4.60;;;24.50;36.90;;;;;;5042178;28;20206;-70
2022/07/04 00:56:52;;;;;;;5.90;4.50;;;24.80;35.30;;;;;;5031815;28;20458;-70
2022/07/04 00:59:18;;;;;;;5.93;4.00;;;24.70;37.40;;;;;;5048545;28;20428;-70
2022/07/04 01:01:44;;;;;;;4.50;3.87;;;24.60;37.80;;;;;;5049351;28;20793;-69
2022/07/04 01:04:09;;;;;;;6.60;4.03;;;24.40;36.70;;;;;;5050463;28;20220;-69
2022/07/04 01:06:36;;;;;;;9.33;4.40;;;24.30;37.00;;;;;;5049099;28;20234;-70
2022/07/04 01:09:02;;;;;;;6.27;4.37;;;24.40;37.40;;;;;;5048623;28;20179;-70
2022/07/04 01:11:28;;;;;;;6.50;4.00;;;24.30;38.60;;;;;;5049316;28;20484;-70
2022/07/04 01:13:54;;;;;;;11.00;4.77;;;24.40;37.80;;;;;;5049376;28;20933;-70
2022/07/04 01:16:20;;;;;;;5.10;4.17;;;24.40;37.00;;;;;;5049565;28;20182;-70
2022/07/04 01:18:46;;;;;;;4.13;3.83;;;24.40;37.30;;;;;;5050538;28;20789;-69
2022/07/04 01:21:12;;;;;;;7.33;3.90;;;24.40;36.60;;;;;;5048531;28;20462;-70
2022/07/04 01:23:39;;;;;;;10.77;4.40;;;24.40;36.50;;;;;;5048363;28;20229;-68
2022/07/04 01:26:05;;;;;;;5.20;3.90;;;24.50;37.10;;;;;;5052702;28;20424;-70
2022/07/04 01:28:31;;;;;;;9.70;3.87;;;24.40;37.40;;;;;;5052720;28;20437;-70
2022/07/04 01:30:57;;;;;;;9.67;4.37;;;24.50;37.40;;;;;;5050186;28;20437;-70
2022/07/04 01:33:22;;;;;;;4.47;3.90;;;24.70;35.50;;;;;;5052698;28;20462;-70
2022/07/04 01:35:48;;;;;;;7.13;4.20;;;24.70;36.90;;;;;;5052498;28;20184;-68
2022/07/04 01:38:14;;;;;;;5.57;4.57;;;24.70;34.30;;;;;;5053333;28;20182;-70
2022/07/04 01:40:39;;;;;;;4.80;4.03;;;24.60;34.30;;;;;;5053053;28;20641;-70
2022/07/04 01:43:05;;;;;;;13.33;4.40;;;24.60;37.00;;;;;;5052452;28;20212;-70
2022/07/04 01:45:34;;;;;;;9.33;4.60;;;24.60;36.40;;;;;;5052768;28;20179;-70
2022/07/04 01:48:00;;;;;;;5.40;4.30;;;24.70;36.90;;;;;;5053439;28;20935;-69
2022/07/04 01:50:26;;;;;;;5.00;4.13;;;24.70;35.40;;;;;;5051881;28;20513;-70
2022/07/04 01:52:51;;;;;;;5.83;4.20;;;24.60;35.30;;;;;;5052260;28;20557;-69
2022/07/04 01:55:17;;;;;;;8.57;4.90;;;24.50;37.40;;;;;;5052916;28;20270;-70
2022/07/04 01:57:42;;;;;;;10.53;4.80;;;24.50;36.90;;;;;;5052702;28;20190;-70
2022/07/04 02:02:55;;;;;;;7.97;4.97;;;24.40;35.80;;;;;;5051304;28;20241;-69
2022/07/04 02:05:22;;;;;;;7.70;4.97;;;24.20;36.60;;;;;;5052415;28;20441;-69
2022/07/04 02:07:48;;;;;;;8.03;5.33;;;24.50;35.20;;;;;;5052440;28;20435;-70
2022/07/04 02:10:14;;;;;;;8.50;4.77;;;24.70;35.40;;;;;;5051346;28;20528;-70
2022/07/04 02:15:24;;;;;;;7.93;4.73;;;24.60;34.70;;;;;;5041159;28;20465;-70
2022/07/04 02:17:49;;;;;;;6.80;4.63;;;24.30;33.90;;;;;;5053132;28;20905;-70
2022/07/04 02:20:15;;;;;;;9.83;4.30;;;24.30;34.20;;;;;;5052274;28;20804;-69
2022/07/04 02:22:41;;;;;;;12.23;4.20;;;24.50;33.70;;;;;;5051627;28;20595;-70
2022/07/04 02:25:08;;;;;;;5.77;3.97;;;24.90;32.50;;;;;;5050954;28;20187;-70
2022/07/04 02:27:33;;;;;;;8.33;4.77;;;25.00;31.50;;;;;;5051714;28;20179;-70
2022/07/04 02:29:59;;;;;;;8.73;4.37;;;24.70;34.70;;;;;;5034271;28;20951;-69
2022/07/04 02:32:25;;;;;;;15.93;4.70;;;24.70;33.70;;;;;;5051424;28;20261;-70
2022/07/04 02:34:50;;;;;;;11.80;4.30;;;24.50;33.30;;;;;;5050112;28;20237;-70
2022/07/04 02:37:16;;;;;;;5.60;4.20;;;24.20;34.00;;;;;;5050843;28;20218;-69
2022/07/04 02:39:42;;;;;;;9.00;4.57;;;24.20;34.90;;;;;;5052849;28;20176;-70
2022/07/04 02:42:08;;;;;;;8.07;4.57;;;24.40;36.40;;;;;;5050664;28;20286;-69
2022/07/04 02:44:33;;;;;;;9.13;4.93;;;24.30;34.70;;;;;;5051537;28;20193;-70
2022/07/04 02:47:00;;;;;;;8.00;3.97;;;24.40;35.20;;;;;;5050673;28;20184;-70
2022/07/04 02:49:26;;;;;;;8.80;4.23;;;24.40;36.00;;;;;;5052725;28;20285;-70
2022/07/04 02:51:51;;;;;;;9.20;4.87;;;24.60;34.00;;;;;;5051518;28;20833;-70
2022/07/04 02:54:17;;;;;;;6.60;4.43;;;24.60;33.00;;;;;;5052008;28;20556;-69
2022/07/04 02:56:43;;;;;;;6.40;4.30;;;24.70;33.40;;;;;;5050006;28;20182;-70
2022/07/04 02:59:08;;;;;;;8.67;4.33;;;24.70;32.40;;;;;;5050878;28;20191;-69
2022/07/04 03:01:34;;;;;;;5.00;4.00;;;24.80;31.80;;;;;;5050833;28;20677;-70
2022/07/04 03:04:00;;;;;;;5.40;4.53;;;24.80;32.30;;;;;;5050997;28;20212;-70
2022/07/04 03:06:25;;;;;;;9.67;4.40;;;24.50;34.20;;;;;;5051117;28;20187;-70
2022/07/04 03:08:52;;;;;;;8.83;5.13;;;24.40;34.70;;;;;;5051759;28;20179;-70
2022/07/04 03:11:19;;;;;;;5.40;4.33;;;24.20;34.50;;;;;;5032835;28;20203;-69
2022/07/04 03:13:45;;;;;;;7.60;4.70;;;24.10;35.10;;;;;;5050124;28;20462;-69
2022/07/04 03:16:11;;;;;;;7.30;4.47;;;24.10;34.20;;;;;;5050726;28;20859;-69
2022/07/04 03:18:37;;;;;;;10.17;4.67;;;23.50;35.60;;;;;;5033442;28;20182;-69
2022/07/04 03:21:06;;;;;;;9.43;4.90;;;23.10;36.40;;;;;;5033179;28;20187;-69
2022/07/04 03:23:32;;;;;;;15.67;4.73;;;23.50;36.00;;;;;;5050463;28;20872;-69
2022/07/04 03:25:58;;;;;;;5.57;4.47;;;23.20;36.90;;;;;;5050913;28;20442;-69
2022/07/04 03:28:23;;;;;;;7.37;4.53;;;23.50;36.70;;;;;;5049949;28;20440;-69
2022/07/04 03:30:49;;;;;;;8.73;4.93;;;23.50;36.10;;;;;;5049632;28;20218;-68
2022/07/04 03:33:14;;;;;;;14.33;4.40;;;23.70;35.60;;;;;;5049338;28;20221;-69
2022/07/04 03:35:40;;;;;;;10.67;4.60;;;23.80;35.30;;;;;;5050827;28;20268;-69
2022/07/04 03:38:06;;;;;;;10.90;4.70;;;23.70;34.70;;;;;;5049624;28;20180;-69
2022/07/04 03:40:32;;;;;;;12.23;4.60;;;23.60;35.20;;;;;;5050557;28;20190;-69
2022/07/04 03:42:58;;;;;;;10.30;4.67;;;23.20;35.80;;;;;;5050135;28;20245;-69
2022/07/04 03:45:24;;;;;;;12.80;5.03;;;23.20;36.70;;;;;;5049343;28;20464;-69
2022/07/04 03:47:50;;;;;;;20.50;4.70;;;23.40;36.30;;;;;;5049964;28;20444;-69
2022/07/04 03:50:16;;;;;;;10.53;4.80;;;22.70;37.50;;;;;;5050033;28;20443;-69
2022/07/04 03:52:42;;;;;;;8.37;4.50;;;22.40;38.20;;;;;;5044603;28;20481;-69
2022/07/04 03:55:08;;;;;;;8.40;4.50;;;22.40;39.00;;;;;;5049717;28;20500;-68
2022/07/04 03:57:34;;;;;;;8.17;5.00;;;22.60;38.20;;;;;;5051221;28;20550;-69
2022/07/04 03:59:59;;;;;;;7.03;4.47;;;22.50;38.80;;;;;;5050725;28;20504;-69
2022/07/04 04:02:25;;;;;;;8.63;4.43;;;22.80;39.40;;;;;;5050773;28;20204;-69
2022/07/04 04:07:34;;;;;;;9.93;5.10;;;23.40;36.40;;;;;;5043964;28;20229;-69
2022/07/04 04:10:00;;;;;;;15.33;4.90;;;23.10;36.90;;;;;;5047337;28;20467;-69
2022/07/04 04:12:26;;;;;;;12.13;5.23;;;22.80;37.30;;;;;;5047034;28;20218;-69
2022/07/04 04:14:51;;;;;;;8.57;4.30;;;22.40;37.80;;;;;;5049651;28;20199;-68
2022/07/04 04:17:17;;;;;;;7.20;4.50;;;22.20;38.70;;;;;;5050974;28;20184;-69
2022/07/04 04:19:43;;;;;;;14.20;4.90;;;22.30;38.70;;;;;;5049993;28;20185;-69
2022/07/04 04:22:08;;;;;;;9.90;5.47;;;22.40;38.90;;;;;;5048816;28;20199;-68
2022/07/04 04:24:34;;;;;;;8.93;4.87;;;22.60;38.20;;;;;;5048905;28;20189;-69
2022/07/04 04:26:59;;;;;;;6.20;4.80;;;23.20;36.30;;;;;;5049305;28;20263;-69
2022/07/04 04:29:25;;;;;;;8.73;4.50;;;20.70;34.00;;;;;;5050926;28;20241;-69
2022/07/04 04:31:50;;;;;;;10.87;5.20;;;22.90;36.60;;;;;;5049042;28;20236;-69
2022/07/04 04:34:16;;;;;;;8.10;5.17;;;22.30;37.60;;;;;;5050199;28;20558;-69
2022/07/04 04:36:42;;;;;;;9.27;5.27;;;22.20;38.90;;;;;;5048718;28;20216;-69
2022/07/04 04:39:07;;;;;;;16.13;4.90;;;22.40;37.30;;;;;;5048210;28;20244;-69
2022/07/04 04:41:33;;;;;;;10.97;5.00;;;22.00;38.60;;;;;;5048898;28;20202;-69
2022/07/04 04:43:58;;;;;;;9.33;4.57;;;21.90;39.10;;;;;;5048602;28;20211;-69
2022/07/04 04:46:24;;;;;;;13.87;4.67;;;22.20;38.40;;;;;;5049433;28;20777;-69
2022/07/04 04:48:50;;;;;;;8.70;4.97;;;22.80;38.80;;;;;;5050800;28;20181;-69
2022/07/04 04:51:15;;;;;;;15.73;5.40;;;22.90;36.30;;;;;;5049416;28;20220;-69
2022/07/04 04:53:41;;;;;;;12.43;5.53;;;23.10;35.60;;;;;;5049811;28;20222;-67
2022/07/04 04:56:06;;;;;;;10.23;5.13;;;23.20;36.20;;;;;;5048217;28;20640;-69
2022/07/04 04:58:32;;;;;;;6.93;4.43;;;23.20;35.60;;;;;;5050498;28;20195;-68
2022/07/04 05:00:58;;;;;;;8.40;4.87;;;23.00;35.80;;;;;;5053505;28;20203;-69
2022/07/04 05:03:23;;;;;;;10.60;5.90;;;22.50;36.70;;;;;;5053488;28;20660;-69
2022/07/04 05:05:49;;;;;;;16.40;4.87;;;21.90;38.30;;;;;;5053114;28;20262;-69
2022/07/04 05:08:14;;;;;;;11.37;5.00;;;21.80;38.60;;;;;;5053289;28;20580;-68
2022/07/04 05:10:40;;;;;;;8.90;5.00;;;21.80;38.90;;;;;;5053026;28;20184;-68
2022/07/04 05:13:07;;;;;;;12.67;5.20;;;21.70;38.80;;;;;;5052529;28;20214;-69
2022/07/04 05:15:33;;;;;;;8.60;4.40;;;22.00;39.60;;;;;;5052539;28;20437;-69
2022/07/04 05:17:58;;;;;;;7.70;4.67;;;22.80;36.60;;;;;;5053013;28;20452;-69
2022/07/04 05:20:24;;;;;;;10.37;4.80;;;22.80;36.50;;;;;;5050428;28;20435;-69
2022/07/04 05:22:50;;;;;;;14.63;4.47;;;23.20;35.30;;;;;;5051919;28;20209;-69
2022/07/04 05:25:15;;;;;;;6.23;4.33;;;23.00;36.00;;;;;;5029894;28;20187;-69
2022/07/04 05:27:41;;;;;;;7.73;4.83;;;23.10;35.70;;;;;;5049954;28;20190;-69
2022/07/04 05:30:08;;;;;;;11.17;4.60;;;23.30;35.20;;;;;;5047523;28;20558;-69
2022/07/04 05:32:33;;;;;;;6.07;4.67;;;23.20;34.70;;;;;;5038906;28;20502;-69
2022/07/04 05:34:59;;;;;;;7.07;4.70;;;22.70;35.80;;;;;;5044928;28;20954;-69
2022/07/04 05:37:25;;;;;;;12.50;5.10;;;22.60;36.20;;;;;;5048767;28;20187;-69
2022/07/04 05:39:51;;;;;;;6.40;5.07;;;22.60;36.70;;;;;;5039129;28;20188;-69
2022/07/04 05:42:17;;;;;;;8.43;4.53;;;23.00;37.90;;;;;;5048367;28;20472;-69
2022/07/04 05:44:43;;;;;;;21.23;5.00;;;23.40;36.50;;;;;;5047939;28;20194;-69
2022/07/04 05:47:08;;;;;;;15.00;4.60;;;23.80;36.00;;;;;;5043997;28;20452;-68
2022/07/04 05:49:34;;;;;;;9.77;4.70;;;23.90;33.90;;;;;;5048462;28;20245;-69
2022/07/04 05:52:00;;;;;;;8.20;4.43;;;23.20;32.90;;;;;;5045936;28;20618;-70
2022/07/04 05:54:25;;;;;;;12.40;5.03;;;22.60;34.80;;;;;;5051084;28;20193;-70
2022/07/04 05:56:51;;;;;;;6.47;4.10;;;22.70;35.40;;;;;;5047021;28;20463;-69
2022/07/04 05:59:17;;;;;;;5.90;4.27;;;22.50;34.40;;;;;;5048534;28;20180;-69
2022/07/04 06:01:42;;;;;;;15.63;4.70;;;22.70;34.00;;;;;;5049049;28;20214;-70
2022/07/04 06:04:08;;;;;;;15.23;4.43;;;22.70;34.40;;;;;;5050630;28;20262;-69
2022/07/04 06:06:34;;;;;;;9.80;5.27;;;22.70;34.50;;;;;;5045287;28;20599;-70
2022/07/04 06:09:00;;;;;;;12.50;4.97;;;22.50;35.20;;;;;;5047817;28;20191;-69
2022/07/04 06:11:26;;;;;;;10.07;5.00;;;22.90;34.50;;;;;;5045958;28;20430;-69
2022/07/04 06:13:52;;;;;;;12.13;4.67;;;23.00;34.00;;;;;;5047941;28;20728;-70
2022/07/04 06:16:17;;;;;;;8.20;4.87;;;23.10;33.90;;;;;;5048750;28;20524;-69
2022/07/04 06:18:44;;;;;;;12.90;5.10;;;22.70;33.90;;;;;;5045678;28;20183;-67
2022/07/04 06:21:09;;;;;;;7.67;4.03;;;23.00;33.90;;;;;;5048181;28;20215;-69
2022/07/04 06:23:35;;;;;;;11.93;4.83;;;23.00;34.50;;;;;;5047523;28;20485;-69
2022/07/04 06:26:01;;;;;;;6.80;4.40;;;23.70;35.30;;;;;;5047013;28;20545;-69
2022/07/04 06:28:27;;;;;;;8.20;4.40;;;24.00;34.00;;;;;;5047803;28;20191;-69
2022/07/04 06:30:53;;;;;;;6.53;4.80;;;23.40;32.50;;;;;;5048509;28;20846;-69
2022/07/04 06:33:18;;;;;;;10.00;4.50;;;22.70;34.70;;;;;;5048785;28;20976;-69
2022/07/04 06:35:45;;;;;;;8.70;4.70;;;22.30;35.60;;;;;;5048741;28;20582;-69
2022/07/04 06:38:12;;;;;;;10.40;4.20;;;23.00;35.30;;;;;;5050422;28;20638;-69
2022/07/04 06:40:38;;;;;;;6.30;4.47;;;23.10;34.60;;;;;;5050283;28;20437;-68
2022/07/04 06:43:04;;;;;;;12.70;4.87;;;22.50;35.50;;;;;;5048447;28;20549;-69
2022/07/04 06:45:30;;;;;;;13.03;5.00;;;22.90;36.10;;;;;;5046908;28;20975;-69
2022/07/04 06:47:56;;;;;;;10.50;4.40;;;23.50;33.10;;;;;;5046034;28;20440;-69
2022/07/04 06:50:22;;;;;;;10.50;5.00;;;21.50;30.60;;;;;;5049017;28;20445;-69
2022/07/04 06:52:48;;;;;;;8.00;4.70;;;24.00;32.30;;;;;;5042046;28;20489;-69
2022/07/04 06:55:14;;;;;;;14.50;5.27;;;24.00;32.10;;;;;;5043226;28;20188;-69
2022/07/04 06:57:39;;;;;;;10.47;5.07;;;23.20;33.40;;;;;;5048320;28;20176;-69
2022/07/04 07:00:07;;;;;;;7.60;5.20;;;23.00;34.90;;;;;;5045423;28;20513;-69
2022/07/04 07:02:36;;;;;;;10.80;4.80;;;23.10;34.50;;;;;;5043142;28;20293;-68
2022/07/04 07:05:02;;;;;;;10.60;4.90;;;22.70;35.00;;;;;;5048343;28;20440;-69
2022/07/04 07:07:28;;;;;;;16.17;5.30;;;23.20;35.10;;;;;;5047378;28;20479;-69
2022/07/04 07:09:54;;;;;;;8.00;4.93;;;23.60;34.40;;;;;;5043306;28;20467;-69
2022/07/04 07:12:23;;;;;;;8.30;4.50;;;23.40;34.30;;;;;;5045959;28;20987;-69
2022/07/04 07:14:50;;;;;;;9.10;5.00;;;23.30;34.60;;;;;;5046483;28;20433;-69
2022/07/04 07:17:16;;;;;;;5.70;4.80;;;23.30;33.80;;;;;;5048488;28;20430;-69
2022/07/04 07:19:43;;;;;;;12.93;4.97;;;23.20;34.80;;;;;;5047089;28;20433;-69
2022/07/04 07:22:09;;;;;;;14.03;4.77;;;23.30;35.40;;;;;;5046243;28;20440;-69
2022/07/04 07:24:35;;;;;;;22.00;5.60;;;23.70;35.20;;;;;;5047120;28;20442;-69
2022/07/04 07:27:01;;;;;;;7.20;4.60;;;24.10;34.20;;;;;;5042157;28;20446;-69
2022/07/04 07:29:27;;;;;;;26.30;4.97;;;24.20;34.20;;;;;;5046413;28;20205;-67
2022/07/04 07:31:52;;;;;;;6.30;4.67;;;24.30;35.30;;;;;;5046330;28;20567;-69
2022/07/04 07:34:18;;;;;;;8.33;4.97;;;24.60;36.20;;;;;;5045297;28;20199;-69
2022/07/04 07:36:43;;;;;;;7.83;4.43;;;24.40;31.60;;;;;;5049533;28;20658;-69
2022/07/04 07:39:09;;;;;;;14.70;4.93;;;24.20;32.70;;;;;;5049874;28;20209;-69
2022/07/04 07:41:35;;;;;;;11.70;5.70;;;24.00;36.00;;;;;;5051259;28;20966;-70
2022/07/04 07:44:01;;;;;;;21.03;5.17;;;24.50;35.30;;;;;;5051135;28;20242;-68
2022/07/04 07:46:26;;;;;;;12.53;5.50;;;24.80;34.90;;;;;;5049697;28;20639;-68
2022/07/04 07:48:52;;;;;;;24.03;4.60;;;25.00;32.30;;;;;;5047988;28;20571;-68
2022/07/04 07:51:18;;;;;;;11.90;4.97;;;25.00;33.50;;;;;;5045927;28;20657;-68
2022/07/04 07:53:43;;;;;;;12.70;4.77;;;25.00;32.10;;;;;;5043083;28;20222;-68
2022/07/04 07:56:09;;;;;;;7.70;4.60;;;25.00;34.20;;;;;;5041643;28;20760;-68
2022/07/04 07:58:35;;;;;;;7.50;4.80;;;25.20;33.70;;;;;;5047536;28;20553;-69
2022/07/04 08:01:04;;;;;;;9.00;4.97;;;25.30;33.50;;;;;;5045999;28;20538;-68
2022/07/04 08:06:14;;;;;;;10.20;4.60;;;24.60;32.10;;;;;;5048527;28;20436;-68
2022/07/04 08:08:41;;;;;;;9.93;4.80;;;24.10;33.30;;;;;;5049426;28;20436;-68
2022/07/04 08:11:06;;;;;;;8.60;4.63;;;23.40;35.10;;;;;;5046840;28;20442;-68
2022/07/04 08:13:32;;;;;;;13.50;4.73;;;23.10;36.40;;;;;;5050178;28;20984;-69
2022/07/04 08:15:58;;;;;;;13.07;5.37;;;23.30;36.30;;;;;;5050736;28;20180;-68
2022/07/04 08:18:24;;;;;;;9.10;5.10;;;22.90;36.80;;;;;;5050341;28;20437;-68
2022/07/04 08:20:50;;;;;;;18.07;5.00;;;22.40;38.20;;;;;;5050434;28;20597;-68
2022/07/04 08:23:16;;;;;;;8.27;4.90;;;22.80;37.40;;;;;;5032656;28;20291;-68
2022/07/04 08:25:42;;;;;;;9.67;4.80;;;23.00;37.90;;;;;;5045760;28;20426;-68
2022/07/04 08:28:08;;;;;;;9.00;4.83;;;23.80;37.00;;;;;;5048526;28;20464;-68
2022/07/04 08:30:33;;;;;;;12.53;5.60;;;24.50;35.40;;;;;;5045686;28;20442;-68
2022/07/04 08:32:59;;;;;;;6.13;4.50;;;24.00;34.20;;;;;;5044382;28;20299;-68
2022/07/04 08:35:25;;;;;;;10.80;4.80;;;24.10;34.40;;;;;;5050633;28;20194;-69
2022/07/04 08:37:53;;;;;;;8.60;5.10;;;23.90;35.10;;;;;;5048252;28;20252;-69
2022/07/04 08:40:23;;;;;;;9.57;5.00;;;23.50;36.30;;;;;;5047352;28;20871;-68
2022/07/04 08:42:49;;;;;;;9.93;4.77;;;24.20;35.30;;;;;;5051852;28;20453;-68
2022/07/04 08:45:17;;;;;;;7.67;5.00;;;23.90;35.20;;;;;;5052053;28;20503;-68
2022/07/04 08:47:43;;;;;;;19.63;4.80;;;23.70;35.00;;;;;;5052437;28;20512;-68
2022/07/04 08:50:12;;;;;;;8.87;4.63;;;24.20;34.60;;;;;;5050397;28;20452;-69
2022/07/04 08:52:43;;;;;;;8.80;4.90;;;24.10;35.20;;;;;;5051862;28;20474;-68
2022/07/04 09:00:43;;;;;;;13.23;5.07;;;24.00;34.80;;;;;;5054946;28;20935;-68
2022/07/04 09:03:09;;;;;;;9.73;4.80;;;23.80;34.70;;;;;;5054533;28;20816;-68
2022/07/04 09:05:35;;;;;;;10.63;4.80;;;23.70;35.40;;;;;;5053821;28;20414;-68
2022/07/04 09:08:03;;;;;;;6.90;5.00;;;23.70;35.70;;;;;;5054338;28;20414;-67
2022/07/04 09:10:29;;;;;;;12.23;4.70;;;24.30;34.40;;;;;;5054160;28;20493;-68
2022/07/04 09:12:55;;;;;;;16.00;5.50;;;24.00;34.90;;;;;;5053585;28;20527;-68
2022/07/04 09:15:21;;;;;;;7.90;4.40;;;24.00;34.10;;;;;;5054080;28;20420;-68
2022/07/04 09:17:47;;;;;;;7.73;5.03;;;23.80;35.60;;;;;;5054328;28;20497;-68
2022/07/04 09:20:19;;;;;;;10.40;5.00;;;23.90;34.70;;;;;;5036134;28;20175;-68
2022/07/04 09:22:46;;;;;;;13.80;5.20;;;24.10;33.90;;;;;;5053817;28;20921;-68
2022/07/04 09:25:14;;;;;;;8.53;4.80;;;24.00;35.20;;;;;;5053927;28;20449;-68
2022/07/04 09:27:42;;;;;;;8.03;4.53;;;24.50;32.80;;;;;;5035838;28;20446;-68
2022/07/04 09:30:08;;;;;;;6.50;4.70;;;24.70;32.20;;;;;;5054268;28;20418;-68
2022/07/04 09:32:46;;;;;;;19.33;5.23;;;24.80;31.20;;;;;;5053675;28;20461;-68
2022/07/04 09:35:18;;;;;;;9.70;4.67;;;24.70;32.20;;;;;;5053178;28;20841;-68
2022/07/04 09:37:53;;;;;;;12.80;4.93;;;24.50;32.60;;;;;;5053696;28;20467;-68
2022/07/04 09:40:24;;;;;;;8.17;4.90;;;24.80;31.60;;;;;;5046421;28;20507;-70
2022/07/04 09:42:49;;;;;;;12.40;4.40;;;24.60;32.10;;;;;;5051273;28;20454;-68
2022/07/04 09:45:15;;;;;;;12.00;4.60;;;24.80;34.10;;;;;;5050940;28;20441;-68
2022/07/04 09:47:44;;;;;;;10.03;4.83;;;25.30;32.00;;;;;;5058512;28;20179;-68
2022/07/04 09:50:35;;;;;;;8.73;5.07;;;26.10;31.50;;;;;;5050289;28;20626;-68
2022/07/04 09:53:06;;;;;;;5.60;4.50;;;26.50;28.80;;;;;;5044306;28;20482;-68
2022/07/04 09:55:34;;;;;;;10.33;4.53;;;27.00;29.60;;;;;;5049210;28;20469;-70
2022/07/04 09:58:17;;;;;;;7.23;4.30;;;26.90;28.90;;;;;;5048439;28;20434;-70
2022/07/04 10:00:47;;;;;;;9.83;4.77;;;27.00;29.10;;;;;;5047126;28;20443;-70
2022/07/04 10:03:26;;;;;;;10.70;4.80;;;26.90;27.80;;;;;;5048155;28;21418;-70
2022/07/04 10:06:11;;;;;;;6.93;4.90;;;27.00;29.80;;;;;;5050428;28;20442;-70
2022/07/04 10:08:38;;;;;;;17.60;5.03;;;27.30;27.10;;;;;;5045518;28;20446;-70
2022/07/04 10:11:04;;;;;;;6.60;4.60;;;27.30;29.00;;;;;;5048083;28;20435;-70
2022/07/04 10:13:30;;;;;;;7.97;4.47;;;26.20;29.40;;;;;;5051753;28;20493;-70
2022/07/04 10:15:57;;;;;;;8.20;4.80;;;26.90;29.80;;;;;;5047779;28;20956;-69
2022/07/04 10:18:23;;;;;;;7.87;4.80;;;27.50;28.60;;;;;;5051672;28;20188;-70
2022/07/04 10:20:51;;;;;;;16.67;5.00;;;27.70;28.30;;;;;;5052260;28;20422;-70
2022/07/04 10:23:18;;;;;;;7.37;4.70;;;27.60;26.40;;;;;;5048115;28;20469;-70
2022/07/04 10:25:49;;;;;;;9.90;4.80;;;27.80;26.80;;;;;;5050511;28;20442;-69
2022/07/04 10:28:17;;;;;;;12.33;4.80;;;28.30;26.90;;;;;;5049267;28;20937;-68
2022/07/04 10:30:47;;;;;;;8.93;4.60;;;28.60;25.30;;;;;;5044108;28;20443;-69
2022/07/04 10:33:15;;;;;;;6.00;4.67;;;28.70;25.40;;;;;;5044656;28;20480;-70
2022/07/04 10:36:09;;;;;;;10.40;4.60;;;28.50;27.60;;;;;;5048957;28;20943;-70
2022/07/04 10:38:53;;;;;;;7.63;4.53;;;28.60;24.80;;;;;;5046067;28;20434;-70
2022/07/04 10:41:21;;;;;;;7.50;4.53;;;27.50;26.30;;;;;;5047730;28;20829;-70
2022/07/04 10:44:00;;;;;;;11.20;4.93;;;28.00;27.60;;;;;;5046856;28;20545;-70
2022/07/04 10:46:37;;;;;;;9.30;4.40;;;28.30;28.10;;;;;;5043348;28;20441;-71
2022/07/04 10:49:24;;;;;;;7.23;4.90;;;28.60;26.40;;;;;;5049622;28;20803;-71
2022/07/04 10:51:54;;;;;;;5.30;4.40;;;28.10;26.00;;;;;;5036060;28;20454;-70
2022/07/04 10:54:34;;;;;;;7.43;4.20;;;27.30;26.60;;;;;;5044326;28;20446;-70
2022/07/04 10:57:13;;;;;;;5.87;4.53;;;26.30;28.20;;;;;;5051408;28;20414;-70
2022/07/04 10:59:41;;;;;;;10.10;4.83;;;26.20;28.10;;;;;;5047958;28;20476;-70
2022/07/04 11:02:06;;;;;;;18.13;4.93;;;26.70;28.80;;;;;;5050313;28;20978;-70
2022/07/04 11:04:46;;;;;;;7.67;4.90;;;26.10;28.80;;;;;;5047685;28;20469;-69
2022/07/04 11:07:11;;;;;;;8.33;4.70;;;26.20;27.60;;;;;;5050036;28;20226;-69
2022/07/04 11:09:37;;;;;;;8.60;4.67;;;26.30;29.30;;;;;;5049600;28;20485;-69
2022/07/04 11:12:06;;;;;;;8.50;4.37;;;27.40;29.10;;;;;;5048332;28;20467;-68
2022/07/04 11:14:44;;;;;;;5.60;3.73;;;28.20;24.90;;;;;;5051538;28;20414;-69
2022/07/04 11:17:32;;;;;;;5.23;3.63;;;28.60;26.90;;;;;;5051253;28;20421;-69
2022/07/04 11:20:03;;;;;;;10.20;3.67;;;27.50;23.40;;;;;;5026578;28;20446;-69
2022/07/04 11:22:29;;;;;;;3.77;3.47;;;26.60;25.20;;;;;;5051208;28;20456;-69
2022/07/04 11:24:55;;;;;;;8.80;4.00;;;26.40;26.00;;;;;;5049582;28;20934;-69
2022/07/04 11:27:22;;;;;;;6.60;4.30;;;27.10;26.60;;;;;;5050571;28;20480;-68
2022/07/04 11:29:52;;;;;;;5.90;3.80;;;26.90;26.00;;;;;;5051568;28;20435;-69
2022/07/04 11:32:19;;;;;;;10.83;4.07;;;26.50;25.30;;;;;;5048981;28;20473;-69
2022/07/04 11:34:46;;;;;;;8.33;4.00;;;26.80;27.20;;;;;;5045747;28;20524;-69
2022/07/04 11:37:12;;;;;;;7.33;4.07;;;27.70;27.70;;;;;;5046546;28;20495;-71
2022/07/04 11:39:37;;;;;;;8.47;4.10;;;28.20;25.60;;;;;;5049770;28;20434;-69
2022/07/04 11:45:02;;;;;;;9.50;4.00;;;29.40;24.90;;;;;;5051328;28;20214;-69
2022/07/04 11:47:36;;;;;;;7.03;3.70;;;30.10;23.10;;;;;;5050909;28;20421;-70
2022/07/04 11:50:10;;;;;;;7.20;3.67;;;29.30;21.80;;;;;;5049402;28;20437;-69
2022/07/04 11:52:41;;;;;;;15.63;3.60;;;29.00;24.50;;;;;;5049236;28;20477;-69
2022/07/04 11:55:13;;;;;;;7.00;3.80;;;30.10;23.50;;;;;;5051208;28;20407;-70
2022/07/04 11:57:51;;;;;;;6.33;3.90;;;30.90;22.70;;;;;;5050519;28;20410;-70
2022/07/04 12:00:19;;;;;;;11.07;3.73;;;31.40;21.30;;;;;;5050790;28;20489;-69
2022/07/04 12:02:47;;;;;;;5.43;3.73;;;31.90;22.10;;;;;;5046918;28;20477;-69
2022/07/04 12:05:14;;;;;;;9.80;3.90;;;32.20;20.90;;;;;;5047539;28;20445;-69
2022/07/04 12:07:42;;;;;;;8.83;3.93;;;32.20;20.40;;;;;;5048836;28;20434;-69
2022/07/04 12:10:25;;;;;;;5.23;3.90;;;30.60;19.30;;;;;;5049949;28;20418;-70
2022/07/04 12:13:09;;;;;;;8.10;3.80;;;30.50;21.60;;;;;;5048658;28;20473;-69
2022/07/04 12:15:43;;;;;;;6.60;3.73;;;31.40;22.80;;;;;;5043971;28;20858;-69
2022/07/04 12:18:27;;;;;;;4.80;3.70;;;32.20;21.30;;;;;;5050058;28;20430;-69
2022/07/04 12:20:53;;;;;;;6.50;3.33;;;32.40;20.90;;;;;;5050239;28;20441;-68
2022/07/04 12:23:21;;;;;;;8.00;3.70;;;31.70;21.10;;;;;;5049078;28;20466;-69
2022/07/04 12:25:49;;;;;;;7.13;3.63;;;31.90;19.60;;;;;;5045805;28;20978;-69
2022/07/04 12:28:16;;;;;;;4.40;3.37;;;32.40;21.00;;;;;;5050928;28;20418;-69
2022/07/04 12:30:49;;;;;;;6.33;3.17;;;33.10;19.40;;;;;;5049410;28;20434;-69
2022/07/04 12:33:19;;;;;;;11.60;4.00;;;33.40;17.00;;;;;;5049603;28;20471;-69
2022/07/04 12:35:47;;;;;;;7.53;3.57;;;33.20;17.80;;;;;;5049008;28;20865;-69
2022/07/04 12:38:23;;;;;;;8.70;3.53;;;33.60;18.40;;;;;;5050454;28;20429;-69
2022/07/04 12:41:06;;;;;;;5.73;3.47;;;33.70;18.10;;;;;;5050572;28;20405;-69
2022/07/04 12:43:41;;;;;;;7.93;3.67;;;32.90;20.00;;;;;;5048746;28;21056;-69
2022/07/04 12:46:23;;;;;;;5.53;3.20;;;32.50;18.60;;;;;;5050363;28;20433;-69
2022/07/04 12:48:50;;;;;;;4.37;3.53;;;32.40;18.50;;;;;;5045153;28;20438;-69
2022/07/04 12:51:19;;;;;;;4.57;3.60;;;31.20;20.30;;;;;;5029449;28;20430;-69
2022/07/04 12:53:47;;;;;;;11.37;3.57;;;30.80;19.30;;;;;;5047298;28;20948;-70
2022/07/04 12:56:36;;;;;;;5.70;3.53;;;29.90;23.10;;;;;;5048335;28;20437;-70
2022/07/04 12:59:08;;;;;;;4.70;3.20;;;30.70;21.30;;;;;;5036002;28;20418;-69
2022/07/04 13:01:34;;;;;;;7.47;3.73;;;31.70;20.50;;;;;;5050164;28;20454;-69
2022/07/04 13:04:01;;;;;;;5.60;3.43;;;32.20;19.00;;;;;;5048864;28;20498;-69